• Join FlightAware (Why Join?)
  • Login
  • US Flag 
01:06AM EDT


 

Airport Tracker/Info


-or-


 

Live Flight TrackerFlight Track Log ✈ DAL1092 ✈ 15-Jun-2014 ✈ KATL - KIAH

Flight Track Log - Related Links

Times and Time Zones

All times are in EDT time to prevent confusion due to time zone crossing. See the DAL1092 flight status page for this flight to view local times or setup timezone preferences in your user account.

Time Position Orientation Groundspeed Altitude Reporting Facility
EDT Latitude Longitude Course Direction KTS MPH feet Rate Location/Type
09:54AM 33.6667 -84.3333 259° West 239 275 3,000  Level Atlanta TRACON
09:55AM 33.7167 -84.2833 40° Northeast 279 321 5,500 2,700 Climbing Atlanta TRACON
09:56AM 33.5187 -84.8471 251° West  Level Estimated
09:56AM 33.8000 -84.2833 360° North 294 338 8,500  Level Atlanta TRACON
09:57AM 33.5114 -84.9942 267° West  Level FlightAware Approximate
09:58AM 33.5039 -85.1413 267° West  Level FlightAware Approximate
09:59AM 33.4631 -85.2803 259° West  Level Estimated
09:59AM 33.8100 -84.5339 273° West 291 335 13,500  Level Atlanta Center
10:00AM 33.7739 -84.6436 248° West 336 387 14,700 1,380 Climbing Atlanta Center
10:01AM 33.7025 -84.7506 231° Southwest 367 422 16,300 1,740 Climbing Atlanta Center
10:02AM 33.6350 -84.8722 236° Southwest 399 459 18,200 1,800 Climbing Atlanta Center
10:03AM 33.5900 -85.0064 248° West 426 490 20,000 1,800 Climbing Atlanta Center
10:04AM 33.5408 -85.1453 247° West 447 514 21,900 1,680 Climbing Atlanta Center
10:05AM 33.5000 -85.2869 251° West 452 520 23,400 1,380 Climbing Atlanta Center
10:06AM 33.4772 -85.4458 260° West 464 534 24,700 1,440 Climbing Atlanta Center
10:07AM 33.4525 -85.6000 259° West 476 548 26,300 1,560 Climbing Atlanta Center
10:08AM 33.4297 -85.7514 260° West 476 548 27,900 1,380 Climbing Atlanta Center
10:09AM 33.4067 -85.8878 259° West 470 541 29,100 1,200 Climbing Atlanta Center
10:10AM 33.3836 -86.0364 260° West 470 541 30,400 1,380 Climbing Atlanta Center
10:11AM 33.3578 -86.2050 260° West 475 547 31,900 1,080 Climbing Atlanta Center
10:12AM 33.3322 -86.3511 258° West 469 540 32,600 1,020 Climbing Atlanta Center
10:13AM 33.3086 -86.4847 258° West 469 540 34,000 660 Climbing Atlanta Center
10:14AM 33.2844 -86.6431 260° West 455 524 34,000  Level Atlanta Center
10:15AM 33.2606 -86.7914 259° West 461 531 34,000  Level Atlanta Center
10:16AM 33.2322 -86.9369 257° West 456 525 34,000  Level Atlanta Center
10:17AM 33.1856 -87.0472 243° Southwest 451 519 34,000  Level Atlanta Center
10:18AM 33.1172 -87.1911 240° Southwest 455 524 34,000  Level Atlanta Center
10:19AM 33.0356 -87.3775 242° Southwest 453 521 34,000  Level Memphis Center
10:20AM 32.9761 -87.5111 242° Southwest 453 521 34,000  Level Memphis Center
10:21AM 32.9158 -87.6439 242° Southwest 454 522 34,000  Level Memphis Center
10:22AM 32.8550 -87.7744 241° Southwest 453 521 34,000  Level Memphis Center
10:23AM 32.7964 -87.9044 242° Southwest 450 518 34,000  Level Memphis Center
10:24AM 32.7272 -88.0556 241° Southwest 450 518 34,000  Level Memphis Center
10:25AM 32.6675 -88.1850 241° Southwest 450 518 34,000  Level Memphis Center
10:26AM 32.6150 -88.3175 245° Southwest 447 514 34,000  Level Memphis Center
10:27AM 32.5739 -88.4556 251° West 445 512 34,000  Level Memphis Center
10:28AM 32.5297 -88.5922 249° West 445 512 34,000  Level Memphis Center
10:29AM 32.4775 -88.7564 249° West 445 512 34,000  Level Memphis Center
10:30AM 32.4328 -88.8911 249° West 445 512 34,000  Level Memphis Center
10:31AM 32.3906 -89.0264 250° West 445 512 34,000  Level Memphis Center
10:32AM 32.3483 -89.1622 250° West 444 511 34,000  Level Memphis Center
10:33AM 32.3064 -89.2992 250° West 444 511 34,000  Level Memphis Center
10:34AM 32.2633 -89.4342 249° West 444 511 34,000  Level Memphis Center
10:35AM 32.2136 -89.5972 250° West 444 511 34,000  Level Memphis Center
10:36AM 32.1700 -89.7353 250° West 444 511 34,000  Level Memphis Center
10:37AM 32.1272 -89.8731 250° West 445 512 34,000  Level Memphis Center
10:39AM 32.0833 -90.0114 250° West 446 513 34,000  Level Memphis Center
10:40AM 32.0400 -90.1489 250° West 449 517 34,000  Level Memphis Center
10:41AM 31.9942 -90.2883 249° West 451 519 34,000  Level Memphis Center
10:42AM 31.9425 -90.4525 250° West 451 519 34,000  Level Memphis Center
10:43AM 31.8975 -90.5906 249° West 451 519 34,000  Level Memphis Center
10:44AM 31.8528 -90.7272 249° West 451 519 34,000  Level Memphis Center
10:45AM 31.8083 -90.8647 249° West 451 519 34,000  Level Memphis Center
10:46AM 31.7642 -90.9997 249° West 450 518 34,000  Level Memphis Center
10:47AM 31.7200 -91.1358 249° West 449 517 34,000  Level Memphis Center
10:48AM 31.6658 -91.2986 249° West 449 517 34,000  Level Memphis Center
10:49AM 31.6208 -91.4350 249° West 450 518 34,000  Level Memphis Center
10:50AM 31.5764 -91.5700 249° West 449 517 34,000  Level Memphis Center
10:51AM 31.5194 -91.7358 248° West 447 514 34,000  Level Houston Center
10:52AM 31.4742 -91.8689 248° West 444 511 34,000  Level Houston Center
10:53AM 31.4206 -92.0289 249° West 443 510 34,000  Level Houston Center
10:54AM 31.3789 -92.1519 248° West 446 513 34,000  Level Houston Center
10:55AM 31.3322 -92.2856 248° West 447 514 34,000  Level Houston Center
10:56AM 31.2756 -92.4492 248° West 453 521 34,000  Level Houston Center
10:57AM 31.2250 -92.5825 246° West 452 520 34,000  Level Houston Center
10:58AM 31.1661 -92.7111 242° Southwest 452 520 34,000  Level Houston Center
10:59AM 31.1097 -92.8411 243° Southwest 452 520 34,000  Level Houston Center
11:00AM 31.0517 -92.9694 242° Southwest 451 519 34,000  Level Houston Center
11:01AM 30.9947 -93.0994 243° Southwest 451 519 34,000 -60 Level Houston Center
11:03AM 30.9269 -93.2511 243° Southwest 447 514 33,900 -900 Descending Houston Center
11:04AM 30.8714 -93.3747 242° Southwest 439 505 32,200 -1,500 Descending Houston Center
11:05AM 30.8156 -93.4994 242° Southwest 438 504 30,800 -1,500 Descending Houston Center
11:06AM 30.7611 -93.6197 242° Southwest 429 494 29,200 -1,800 Descending Houston Center
11:07AM 30.7108 -93.7328 243° Southwest 403 464 27,200 -2,220 Descending Houston Center
11:08AM 30.6492 -93.8675 242° Southwest 397 457 24,700 -2,280 Descending Houston Center
11:09AM 30.5994 -93.9786 243° Southwest 396 456 22,600 -2,100 Descending Houston Center
11:10AM 30.5481 -94.0900 242° Southwest 396 456 20,400 -2,280 Descending Houston Center
11:10AM 30.5111 -94.1706 242° Southwest 392 451 18,900 -2,040 Descending Houston Center
11:11AM 30.4972 -94.1986 240° Southwest 387 445 18,300 -2,100 Descending Houston Center
11:11AM 30.4556 -94.2894 242° Southwest 374 430 16,600 -2,040 Descending Houston Center
11:12AM 30.4494 -94.3036 243° Southwest 378 435 16,200 -1,560 Descending Houston Center
11:12AM 30.4122 -94.3825 241° Southwest 362 417 15,200 -1,260 Descending Houston Center
11:13AM 30.3883 -94.4194 233° Southwest 357 411 14,900 -1,080 Descending Houston Center
11:14AM 30.3406 -94.4644 219° Southwest 327 376 14,000 -1,380 Descending Houston Center
11:14AM 30.3181 -94.4836 216° Southwest 328 377 13,500 -1,680 Descending Houston Center
11:15AM 30.2714 -94.5317 222° Southwest 315 362 12,300 -1,500 Descending Houston Center
11:15AM 30.2539 -94.5461 215° Southwest 319 367 12,000 -1,500 Descending Houston Center
11:16AM 30.2042 -94.5958 221° Southwest 303 349 10,800 -1,500 Descending Houston Center
11:16AM 30.1889 -94.6061 210° Southwest 304 350 10,500 -1,020 Descending Houston Center
11:17AM 30.1364 -94.6556 219° Southwest 270 311 9,700 -900 Descending Houston Center
11:17AM 30.1294 -94.6636 225° Southwest 283 326 9,600 -1,020 Descending Houston Center
11:18AM 30.1003 -94.7181 238° Southwest 238 274 8,800 -1,200 Descending Houston Center
11:18AM 30.0878 -94.7433 240° Southwest 249 287 8,400 -1,320 Descending Houston Center
11:19AM 30.0667 -94.7828 238° Southwest 237 273 7,500 -1,200 Descending Houston Center
11:19AM 30.0525 -94.8061 235° Southwest 237 273 7,200 -1,260 Descending Houston Center
11:19AM 30.0381 -94.8347 240° Southwest 233 268 6,500 -1,260 Descending Houston Center
11:20AM 30.0194 -94.8669 236° Southwest 228 262 5,900 -1,200 Descending Houston Center
11:20AM 30.0039 -94.8944 237° Southwest 221 254 5,300 -900 Descending Houston Center
11:21AM 29.9928 -94.9289 250° West 221 254 5,000 -300 Descending Houston Center
11:22AM 29.9939 -94.9681 272° West 224 258 5,000 -420 Level Houston Center
11:22AM 29.9925 -95.0006 267° West 224 258 4,600 -1,140 Descending Houston Center
11:22AM 29.9919 -95.0358 269° West 228 262 4,000 -1,380 Descending Houston Center
11:23AM 29.9936 -95.0872 272° West 225 259 3,200 -1,200 Descending Houston Center
11:23AM 29.9925 -95.1083 267° West 225 259 2,800 -720 Descending Houston Center
11:24AM 29.9933 -95.1575 271° West 225 259 2,500 -540 Descending Houston Center
11:25AM 29.9928 -95.1781 268° West 184 212 2,300 -540 Descending Houston Center
11:25AM 29.9931 -95.2192 270° West 212 244 2,000 -780 Descending Houston Center
11:25AM 29.9939 -95.2358 273° West 192 221 1,600 -900 Descending Houston Center
11:26AM 29.9936 -95.2728 270° West 191 220 1,100 -720 Descending Houston Center
11:27AM 29.9942 -95.3172 271° West 164 189 300 -780 Descending Houston Center